createdAt,value
2024-03-04T00:00:19.740Z,5.84
2024-03-04T00:03:43.881Z,5.98
2024-03-04T00:06:48.464Z,5.71
2024-03-04T00:09:54.169Z,5.39
2024-03-04T00:12:58.638Z,5.48
2024-03-04T00:16:06.489Z,5.67
2024-03-04T00:19:10.408Z,5.58
2024-03-04T00:22:14.963Z,5.52
2024-03-04T00:25:20.389Z,5.59
2024-03-04T00:28:24.881Z,5.63
2024-03-04T00:31:30.164Z,5.57
2024-03-04T00:34:34.894Z,5.40
2024-03-04T00:37:39.118Z,5.28
2024-03-04T00:40:45.100Z,5.38
2024-03-04T00:43:50.344Z,4.99
2024-03-04T00:46:55.960Z,5.00
2024-03-04T00:50:00.871Z,4.67
2024-03-04T00:53:05.400Z,4.86
2024-03-04T00:56:12.463Z,5.14
2024-03-04T00:59:16.847Z,4.84
2024-03-04T01:02:21.703Z,4.96
2024-03-04T01:05:26.202Z,4.93
2024-03-04T01:08:30.478Z,5.05
2024-03-04T01:11:36.791Z,5.21
2024-03-04T01:14:40.912Z,5.17
2024-03-04T01:17:47.556Z,5.08
2024-03-04T01:20:53.716Z,4.75
2024-03-04T01:23:59.170Z,4.80
2024-03-04T01:27:04.435Z,5.08
2024-03-04T01:30:11.892Z,5.03
2024-03-04T01:33:16.015Z,4.79
2024-03-04T01:36:20.681Z,4.56
2024-03-04T01:39:24.831Z,4.86
2024-03-04T01:42:30.741Z,4.76
2024-03-04T01:45:34.637Z,4.84
2024-03-04T01:48:39.669Z,4.78
2024-03-04T01:51:43.953Z,4.66
2024-03-04T01:54:54.155Z,4.74
2024-03-04T01:57:59.850Z,4.73
2024-03-04T02:01:06.783Z,4.64
2024-03-04T02:04:11.998Z,4.09
2024-03-04T02:07:18.575Z,4.20
2024-03-04T02:10:23.625Z,4.44
2024-03-04T02:13:30.027Z,4.52
2024-03-04T02:16:34.254Z,4.45
2024-03-04T02:19:39.157Z,4.42
2024-03-04T02:22:44.677Z,4.46
2024-03-04T02:25:59.159Z,4.45
2024-03-04T02:29:03.214Z,4.28
2024-03-04T02:32:08.564Z,4.33
2024-03-04T02:35:12.661Z,4.49
2024-03-04T02:38:20.303Z,4.02
2024-03-04T02:41:24.364Z,3.85
2024-03-04T02:44:30.546Z,3.74
2024-03-04T02:47:36.542Z,3.96
2024-03-04T02:50:41.030Z,4.21
2024-03-04T02:53:48.447Z,3.88
2024-03-04T02:56:52.775Z,3.80
2024-03-04T02:59:56.844Z,3.77
2024-03-04T03:03:01.923Z,4.05
2024-03-04T03:06:08.093Z,4.16
2024-03-04T03:09:14.037Z,4.18
2024-03-04T03:12:18.678Z,3.95
2024-03-04T03:15:25.558Z,3.85
2024-03-04T03:18:29.485Z,3.79
2024-03-04T03:21:34.960Z,3.69
2024-03-04T03:24:40.273Z,3.77
2024-03-04T03:27:44.784Z,3.70
2024-03-04T03:30:48.764Z,3.73
2024-03-04T03:33:53.050Z,3.34
2024-03-04T03:36:56.964Z,3.41
2024-03-04T03:40:03.610Z,3.49
2024-03-04T03:43:07.475Z,3.64
2024-03-04T03:46:14.024Z,3.34
2024-03-04T03:49:18.390Z,3.62
2024-03-04T03:52:22.955Z,3.78
2024-03-04T03:55:28.345Z,3.76
2024-03-04T03:58:32.612Z,3.54
2024-03-04T04:01:38.441Z,3.12
2024-03-04T04:04:43.256Z,3.31
2024-03-04T04:07:47.189Z,3.42
2024-03-04T04:10:52.976Z,3.50
2024-03-04T04:13:57.701Z,3.44
2024-03-04T04:17:01.886Z,3.31
2024-03-04T04:20:08.345Z,3.28
2024-03-04T04:23:12.553Z,3.25
2024-03-04T04:26:26.191Z,3.34
2024-03-04T04:29:30.566Z,2.90
2024-03-04T04:32:35.451Z,2.52
2024-03-04T04:35:43.939Z,2.80
2024-03-04T04:38:48.813Z,2.87
2024-03-04T04:41:55.418Z,2.64
2024-03-04T04:45:01.082Z,2.87
2024-03-04T04:48:06.013Z,3.05
2024-03-04T04:51:11.122Z,2.89
2024-03-04T04:54:16.756Z,2.78
2024-03-04T04:57:23.264Z,2.85
2024-03-04T05:00:27.554Z,2.89
2024-03-04T05:03:47.125Z,2.74
2024-03-04T05:06:57.144Z,2.90
2024-03-04T05:10:01.599Z,2.95
2024-03-04T05:13:10.572Z,3.00
2024-03-04T05:16:14.524Z,3.06
2024-03-04T05:19:18.869Z,3.15
2024-03-04T05:22:23.879Z,3.26
2024-03-04T05:25:28.107Z,3.28
2024-03-04T05:28:33.322Z,3.30
2024-03-04T05:31:53.230Z,3.23
2024-03-04T05:34:57.426Z,3.18
2024-03-04T05:38:01.994Z,3.43
2024-03-04T05:41:07.144Z,3.45
2024-03-04T05:44:13.424Z,3.54
2024-03-04T05:47:17.310Z,3.64
2024-03-04T05:50:21.548Z,3.76
2024-03-04T05:53:26.837Z,4.02
2024-03-04T05:56:31.211Z,4.24
2024-03-04T05:59:36.644Z,4.55
2024-03-04T06:02:41.264Z,4.70
2024-03-04T06:05:45.354Z,4.61
2024-03-04T06:08:50.183Z,4.73
2024-03-04T06:11:53.921Z,4.86
2024-03-04T06:14:59.980Z,4.93
2024-03-04T06:18:04.886Z,5.09
2024-03-04T06:21:09.125Z,5.31
2024-03-04T06:24:14.039Z,5.58
2024-03-04T06:27:18.496Z,5.75
2024-03-04T06:30:23.848Z,5.90
2024-03-04T06:33:39.996Z,5.95
2024-03-04T06:36:52.192Z,6.23
2024-03-04T06:39:56.445Z,6.65
2024-03-04T06:43:00.509Z,6.74
2024-03-04T06:46:06.544Z,7.01
2024-03-04T06:49:10.406Z,7.15
2024-03-04T06:52:14.840Z,7.14
2024-03-04T06:55:18.633Z,7.20
2024-03-04T06:58:23.803Z,7.10
2024-03-04T07:01:29.510Z,7.45
2024-03-04T07:04:34.179Z,7.68
2024-03-04T07:07:37.980Z,8.01
2024-03-04T07:10:42.439Z,8.33
2024-03-04T07:13:46.902Z,8.53
2024-03-04T07:16:52.585Z,9.07
2024-03-04T07:19:56.289Z,9.99
2024-03-04T07:23:00.620Z,11.16
2024-03-04T07:26:08.028Z,11.23
2024-03-04T07:29:17.106Z,10.90
2024-03-04T07:32:29.007Z,10.58
2024-03-04T07:35:33.872Z,10.61
2024-03-04T07:38:37.600Z,10.78
2024-03-04T07:41:41.575Z,10.84
2024-03-04T07:44:46.036Z,11.16
2024-03-04T07:47:51.974Z,11.25
2024-03-04T07:50:55.810Z,11.36
2024-03-04T07:53:59.876Z,11.31
2024-03-04T07:57:10.700Z,11.21
2024-03-04T08:00:22.775Z,11.12
2024-03-04T08:03:28.054Z,11.05
2024-03-04T08:06:34.210Z,11.14
2024-03-04T08:09:38.128Z,11.33
2024-03-04T08:12:42.350Z,11.48
2024-03-04T08:15:46.095Z,11.66
2024-03-04T08:18:51.780Z,11.78
2024-03-04T08:21:55.627Z,11.99
2024-03-04T08:25:00.011Z,12.02
2024-03-04T08:28:04.829Z,12.25
2024-03-04T08:31:09.980Z,12.25
2024-03-04T08:34:16.024Z,12.27
2024-03-04T08:37:20.418Z,12.43
2024-03-04T08:40:26.887Z,12.65
2024-03-04T08:43:31.265Z,12.53
2024-03-04T08:46:35.550Z,12.65
2024-03-04T08:49:41.456Z,12.72
2024-03-04T08:52:45.354Z,12.84
2024-03-04T08:55:49.696Z,12.84
2024-03-04T08:58:53.956Z,12.94
2024-03-04T09:01:58.256Z,12.90
2024-03-04T09:05:07.598Z,13.11
2024-03-04T09:08:13.018Z,13.14
2024-03-04T09:11:16.979Z,13.15
2024-03-04T09:14:21.978Z,13.23
2024-03-04T09:17:26.277Z,13.26
2024-03-04T09:20:31.954Z,13.46
2024-03-04T09:23:36.149Z,13.55
2024-03-04T09:26:41.070Z,13.65
2024-03-04T09:29:45.706Z,13.70
2024-03-04T09:32:50.193Z,13.85
2024-03-04T09:35:56.427Z,13.93
2024-03-04T09:39:00.783Z,13.98
2024-03-04T09:42:05.241Z,14.02
2024-03-04T09:45:11.943Z,14.07
2024-03-04T09:48:17.472Z,14.16
2024-03-04T09:51:27.083Z,14.15
2024-03-04T09:54:34.269Z,14.32
2024-03-04T09:57:39.670Z,14.51
2024-03-04T10:00:45.110Z,14.53
2024-03-04T10:03:50.036Z,14.20
2024-03-04T10:06:55.232Z,14.42
2024-03-04T10:09:59.459Z,14.42
2024-03-04T10:13:03.329Z,14.57
2024-03-04T10:16:10.718Z,14.46
2024-03-04T10:19:21.395Z,14.56
2024-03-04T10:22:27.385Z,14.61
2024-03-04T10:25:31.525Z,14.56
2024-03-04T10:28:40.520Z,14.63
2024-03-04T10:31:52.492Z,14.60
2024-03-04T10:35:05.490Z,14.71
2024-03-04T10:38:10.827Z,14.56
2024-03-04T10:41:24.305Z,14.68
2024-03-04T10:44:29.027Z,14.70
2024-03-04T10:47:34.600Z,14.78
2024-03-04T10:50:40.201Z,14.74
2024-03-04T10:53:46.586Z,14.79
2024-03-04T10:57:01.198Z,14.83
2024-03-04T11:00:18.910Z,14.77
2024-03-04T11:03:26.579Z,14.85
2024-03-04T11:06:32.986Z,14.77
2024-03-04T11:09:40.720Z,14.69
2024-03-04T11:12:51.092Z,14.78
2024-03-04T11:15:59.899Z,14.93
2024-03-04T11:19:12.090Z,15.03
2024-03-04T11:22:16.689Z,15.03
2024-03-04T11:25:23.858Z,15.13
2024-03-04T11:28:29.197Z,15.16
2024-03-04T11:31:33.883Z,15.20
2024-03-04T11:35:07.155Z,15.29
2024-03-04T11:38:11.600Z,15.35
2024-03-04T11:41:40.329Z,15.51
2024-03-04T11:44:45.310Z,15.40
2024-03-04T11:47:50.420Z,15.13
2024-03-04T11:50:56.241Z,15.08
2024-03-04T11:53:59.894Z,14.88
2024-03-04T11:57:07.284Z,14.84
2024-03-04T12:00:13.577Z,14.93
2024-03-04T12:03:17.749Z,14.97
2024-03-04T12:06:21.986Z,15.25
2024-03-04T12:09:45.116Z,15.37
2024-03-04T12:12:52.566Z,15.57
2024-03-04T12:15:58.711Z,15.56
2024-03-04T12:19:02.761Z,15.57
2024-03-04T12:22:07.204Z,15.63
2024-03-04T12:25:12.098Z,15.39
2024-03-04T12:28:20.696Z,15.51
2024-03-04T12:31:24.760Z,15.33
2024-03-04T12:34:31.216Z,15.59
2024-03-04T12:37:35.012Z,15.75
2024-03-04T12:40:39.523Z,15.74
2024-03-04T12:43:46.301Z,15.50
2024-03-04T12:46:51.135Z,15.48
2024-03-04T12:49:55.390Z,15.39
2024-03-04T12:53:00.548Z,15.24
2024-03-04T12:56:04.839Z,15.18
2024-03-04T12:59:10.551Z,15.28
2024-03-04T13:02:14.334Z,15.23
2024-03-04T13:05:19.121Z,15.20
2024-03-04T13:08:23.026Z,14.52
2024-03-04T13:11:27.474Z,14.71
2024-03-04T13:14:34.537Z,14.87
2024-03-04T13:17:40.103Z,14.83
2024-03-04T13:20:43.986Z,14.58
2024-03-04T13:23:50.891Z,14.69
2024-03-04T13:26:54.871Z,14.74
2024-03-04T13:30:01.096Z,14.68
2024-03-04T13:33:05.214Z,14.64
2024-03-04T13:36:09.891Z,14.49
2024-03-04T13:39:13.957Z,14.51
2024-03-04T13:42:18.553Z,14.58
2024-03-04T13:45:23.919Z,14.65
2024-03-04T13:48:27.998Z,14.42
2024-03-04T13:51:31.706Z,14.45
2024-03-04T13:54:36.074Z,14.61
2024-03-04T13:57:42.343Z,14.57
2024-03-04T14:00:47.881Z,14.70
2024-03-04T14:03:51.893Z,14.71
2024-03-04T14:06:56.228Z,14.65
2024-03-04T14:09:59.959Z,14.77
2024-03-04T14:13:03.981Z,14.69
2024-03-04T14:16:10.411Z,14.91
2024-03-04T14:19:15.258Z,14.95
2024-03-04T14:22:19.137Z,14.76
2024-03-04T14:25:23.360Z,14.93
2024-03-04T14:28:30.732Z,15.02
2024-03-04T14:31:36.806Z,15.13
2024-03-04T14:34:40.488Z,15.28
2024-03-04T14:37:44.704Z,15.12
2024-03-04T14:40:49.002Z,14.85
2024-03-04T14:43:54.084Z,14.88
2024-03-04T14:46:59.561Z,15.08
2024-03-04T14:50:04.024Z,15.23
2024-03-04T14:53:07.872Z,15.30
2024-03-04T14:56:13.629Z,15.30
2024-03-04T14:59:17.463Z,15.37
2024-03-04T15:02:23.401Z,15.42
2024-03-04T15:05:28.070Z,15.27
2024-03-04T15:08:34.873Z,15.23
2024-03-04T15:11:42.668Z,15.08
2024-03-04T15:14:47.974Z,14.90
2024-03-04T15:17:58.300Z,14.80
2024-03-04T15:21:08.615Z,14.88
2024-03-04T15:24:12.628Z,14.89
2024-03-04T15:27:16.946Z,14.92
2024-03-04T15:30:21.106Z,14.87
2024-03-04T15:33:26.909Z,14.71
2024-03-04T15:36:36.400Z,14.75
2024-03-04T15:39:44.356Z,14.73
2024-03-04T15:42:48.096Z,14.82
2024-03-04T15:45:54.322Z,14.43
2024-03-04T15:48:59.801Z,14.64
2024-03-04T15:52:04.088Z,14.54
2024-03-04T15:55:14.707Z,14.44
2024-03-04T15:58:19.018Z,14.29
2024-03-04T16:01:23.991Z,14.16
2024-03-04T16:04:31.364Z,13.97
2024-03-04T16:07:35.171Z,13.92
2024-03-04T16:10:39.625Z,13.91
2024-03-04T16:13:43.763Z,13.78
2024-03-04T16:16:48.757Z,13.82
2024-03-04T16:19:54.370Z,13.72
2024-03-04T16:22:58.542Z,13.63
2024-03-04T16:26:02.797Z,13.47
2024-03-04T16:29:07.174Z,12.85
2024-03-04T16:32:10.851Z,13.04
2024-03-04T16:35:16.483Z,12.89
2024-03-04T16:38:20.673Z,12.79
2024-03-04T16:41:25.047Z,12.43
2024-03-04T16:44:28.946Z,12.51
2024-03-04T16:47:33.583Z,12.50
2024-03-04T16:50:39.101Z,12.34
2024-03-04T16:53:43.599Z,12.37
2024-03-04T16:56:47.691Z,12.40
2024-03-04T16:59:51.856Z,12.47
2024-03-04T17:02:55.776Z,12.36
2024-03-04T17:06:03.248Z,12.09
2024-03-04T17:09:07.670Z,12.36
2024-03-04T17:12:14.763Z,12.41
2024-03-04T17:15:20.842Z,12.41
2024-03-04T17:18:25.783Z,12.43
2024-03-04T17:21:32.363Z,12.53
2024-03-04T17:24:36.866Z,12.32
2024-03-04T17:27:41.476Z,12.11
2024-03-04T17:30:46.557Z,11.88
2024-03-04T17:33:50.392Z,11.83
2024-03-04T17:36:56.716Z,11.70
2024-03-04T17:40:01.083Z,11.81
2024-03-04T17:43:05.431Z,11.82
2024-03-04T17:46:09.294Z,11.82
2024-03-04T17:49:13.744Z,11.77
2024-03-04T17:52:19.365Z,11.77
2024-03-04T17:55:23.725Z,11.74
2024-03-04T17:58:27.564Z,11.63
2024-03-04T18:01:31.872Z,11.61
2024-03-04T18:04:35.689Z,11.45
2024-03-04T18:07:41.959Z,11.49
2024-03-04T18:10:48.066Z,11.65
2024-03-04T18:13:52.304Z,11.44
2024-03-04T18:16:56.295Z,11.51
2024-03-04T18:20:00.957Z,11.40
2024-03-04T18:23:06.593Z,11.36
2024-03-04T18:26:10.809Z,11.33
2024-03-04T18:29:16.134Z,11.08
2024-03-04T18:32:20.811Z,11.23
2024-03-04T18:35:24.520Z,11.34
2024-03-04T18:38:30.481Z,11.28
2024-03-04T18:41:34.304Z,11.16
2024-03-04T18:44:38.502Z,11.20
2024-03-04T18:47:42.389Z,11.23
2024-03-04T18:50:46.941Z,11.32
2024-03-04T18:53:52.433Z,11.29
2024-03-04T18:56:56.710Z,11.31
2024-03-04T19:00:01.478Z,11.28
2024-03-04T19:03:07.781Z,11.29
2024-03-04T19:06:11.641Z,11.31
2024-03-04T19:09:18.295Z,11.30
2024-03-04T19:12:27.648Z,11.39
2024-03-04T19:15:32.108Z,11.31
2024-03-04T19:18:38.358Z,11.44
2024-03-04T19:21:43.115Z,11.28
2024-03-04T19:24:49.396Z,11.30
2024-03-04T19:27:53.913Z,11.31
2024-03-04T19:30:57.828Z,11.27
2024-03-04T19:34:02.070Z,11.20
2024-03-04T19:37:06.310Z,11.06
2024-03-04T19:40:15.101Z,11.11
2024-03-04T19:43:19.462Z,11.07
2024-03-04T19:46:26.653Z,10.91
2024-03-04T19:49:32.121Z,10.98
2024-03-04T19:52:36.709Z,10.97
2024-03-04T19:55:49.104Z,10.88
2024-03-04T19:58:53.696Z,10.84
2024-03-04T20:01:57.694Z,10.74
2024-03-04T20:05:03.507Z,10.77
2024-03-04T20:08:08.225Z,10.71
2024-03-04T20:11:16.227Z,10.88
2024-03-04T20:14:20.413Z,10.75
2024-03-04T20:17:24.684Z,10.63
2024-03-04T20:20:28.534Z,10.60
2024-03-04T20:23:33.105Z,10.56
2024-03-04T20:26:38.472Z,10.54
2024-03-04T20:29:43.259Z,10.26
2024-03-04T20:32:47.081Z,10.50
2024-03-04T20:35:51.871Z,10.72
2024-03-04T20:38:55.608Z,10.50
2024-03-04T20:42:03.311Z,10.63
2024-03-04T20:45:12.247Z,10.38
2024-03-04T20:48:18.909Z,10.44
2024-03-04T20:51:29.052Z,10.55
2024-03-04T20:54:33.392Z,10.43
2024-03-04T20:57:39.421Z,10.70
2024-03-04T21:00:43.902Z,10.74
2024-03-04T21:03:47.814Z,10.60
2024-03-04T21:06:52.970Z,10.59
2024-03-04T21:09:56.793Z,10.51
2024-03-04T21:13:02.875Z,10.39
2024-03-04T21:16:07.738Z,10.44
2024-03-04T21:19:12.167Z,10.50
2024-03-04T21:22:16.179Z,10.40
2024-03-04T21:25:21.046Z,10.46
2024-03-04T21:28:26.530Z,10.38
2024-03-04T21:31:31.099Z,10.51
2024-03-04T21:34:38.049Z,10.49
2024-03-04T21:37:42.781Z,10.35
2024-03-04T21:40:46.806Z,10.36
2024-03-04T21:43:52.952Z,10.40
2024-03-04T21:46:56.994Z,10.56
2024-03-04T21:50:02.004Z,10.59
2024-03-04T21:53:05.982Z,10.68
2024-03-04T21:56:11.827Z,10.72
2024-03-04T21:59:18.727Z,10.58
2024-03-04T22:02:22.957Z,10.63
2024-03-04T22:05:28.141Z,10.35
2024-03-04T22:08:34.607Z,10.33
2024-03-04T22:11:46.429Z,10.17
2024-03-04T22:14:53.098Z,10.20
2024-03-04T22:17:58.105Z,10.27
2024-03-04T22:21:02.514Z,10.27
2024-03-04T22:24:08.011Z,10.33
2024-03-04T22:27:13.953Z,10.49
2024-03-04T22:30:19.596Z,10.16
2024-03-04T22:33:24.126Z,10.25
2024-03-04T22:36:27.951Z,10.29
2024-03-04T22:39:32.203Z,10.43
2024-03-04T22:42:36.610Z,10.45
2024-03-04T22:45:44.699Z,10.48
2024-03-04T22:48:48.661Z,10.41
2024-03-04T22:51:52.841Z,10.57
2024-03-04T22:54:56.768Z,10.75
2024-03-04T22:58:01.159Z,10.77
2024-03-04T23:01:06.498Z,10.95
2024-03-04T23:04:13.052Z,11.05
2024-03-04T23:07:17.232Z,10.90
2024-03-04T23:10:21.435Z,11.08
2024-03-04T23:13:25.309Z,11.10
2024-03-04T23:16:30.909Z,11.08
2024-03-04T23:19:35.013Z,11.17
2024-03-04T23:22:39.619Z,11.18
2024-03-04T23:25:43.805Z,11.10
2024-03-04T23:28:49.346Z,11.16
2024-03-04T23:31:55.584Z,11.08
2024-03-04T23:34:59.883Z,11.10
2024-03-04T23:38:04.150Z,10.67
2024-03-04T23:41:08.594Z,10.78
2024-03-04T23:44:12.473Z,10.98
2024-03-04T23:47:18.549Z,11.03
2024-03-04T23:50:22.541Z,11.08
2024-03-04T23:53:32.826Z,11.23
2024-03-04T23:56:37.683Z,11.24
2024-03-04T23:59:43.287Z,11.26
